ADDS METAR Data INFO
IDs: Format: Raw Decoded Include TAF

Data at: 1044 UTC 19 Oct 2017

KLVN 191032Z AUTO 20003KT 10SM CLR 03/01 A3005 RMK AO2
KLVN 191012Z AUTO 00000KT 10SM CLR 02/01 A3005 RMK AO2
KLVN 190951Z AUTO 25003KT 10SM CLR 02/01 A3004 RMK AO2
KLVN 190932Z AUTO 00000KT 10SM CLR 02/01 A3004 RMK AO2
KLVN 190911Z AUTO 00000KT 10SM CLR 03/01 A3004 RMK AO2
KLVN 190851Z AUTO 00000KT 10SM CLR 03/01 A3004 RMK AO2
KLVN 190832Z AUTO 00000KT 10SM CLR 07/M01 A3004 RMK AO2
KLVN 190811Z AUTO 00000KT 10SM CLR 05/01 A3004 RMK AO2
KLVN 190751Z AUTO 00000KT 10SM CLR 04/01 A3004 RMK AO2
KLVN 190732Z AUTO 00000KT 10SM CLR 03/02 A3004 RMK AO2
KLVN 190711Z AUTO 00000KT 10SM CLR 04/01 A3004 RMK AO2
KLVN 190651Z AUTO 00000KT 10SM CLR 04/01 A3004 RMK AO2
KLVN 190632Z AUTO 00000KT 10SM CLR 04/01 A3004 RMK AO2
KLVN 190611Z AUTO 00000KT 10SM CLR 04/01 A3003 RMK AO2
KLVN 190551Z AUTO 00000KT 10SM CLR 07/00 A3002 RMK AO2
KLVN 190532Z AUTO 26003KT 10SM CLR 08/M01 A3002 RMK AO2
KLVN 190511Z AUTO 27003KT 10SM CLR 06/00 A3003 RMK AO2
KLVN 190451Z AUTO 00000KT 10SM CLR 08/M01 A3003 RMK AO2
KLVN 190432Z AUTO 27004KT 10SM CLR 08/M01 A3002 RMK AO2
KLVN 190411Z AUTO 27004KT 10SM CLR 09/M02 A3002 RMK AO2
KLVN 190351Z AUTO 27005KT 10SM CLR 09/M02 A3002 RMK AO2
KLVN 190332Z AUTO 27005KT 10SM CLR 09/M02 A3002 RMK AO2
KLVN 190311Z AUTO 26004KT 10SM CLR 09/M02 A3002 RMK AO2
KLVN 190251Z AUTO 27004KT 10SM CLR 10/M02 A3001 RMK AO2
KLVN 190232Z AUTO 27005KT 10SM CLR 10/M02 A3001 RMK AO2
KLVN 190212Z AUTO 27005KT 10SM CLR 11/M02 A3000 RMK AO2
KLVN 190151Z AUTO 27005KT 10SM CLR 12/M02 A2999 RMK AO2
KLVN 190131Z AUTO 28005KT 10SM CLR 12/M02 A2999 RMK AO2
KLVN 190112Z AUTO 28006KT 10SM CLR 12/M02 A2998 RMK AO2
KLVN 190051Z AUTO 29005KT 10SM CLR 12/M01 A2997 RMK AO2
KLVN 190031Z AUTO 28004KT 10SM CLR 13/M02 A2996 RMK AO2
KLVN 190012Z AUTO 28005KT 10SM CLR 13/M02 A2995 RMK AO2
KLVN 182351Z AUTO 27005KT 10SM CLR 14/M02 A2994 RMK AO2
KLVN 182331Z AUTO 28008KT 10SM CLR 17/M01 A2993 RMK AO2
KLVN 182312Z AUTO 27006KT 10SM CLR 17/M01 A2991 RMK AO2
KLVN 182251Z AUTO 28007KT 10SM CLR 18/M01 A2990 RMK AO2
KLVN 182231Z AUTO 27005KT 10SM CLR 18/00 A2989 RMK AO2
KLVN 182212Z AUTO 28009G18KT 10SM CLR 19/01 A2989 RMK AO2
KLVN 182151Z AUTO 29006KT 10SM CLR 20/02 A2988 RMK AO2
KLVN 182131Z AUTO 30010G20KT 10SM CLR 21/01 A2987 RMK AO2
KLVN 182112Z AUTO 28012G17KT 10SM CLR 21/02 A2986 RMK AO2
KLVN 182051Z AUTO 27007KT 10SM CLR 21/04 A2985 RMK AO2
KLVN 182032Z AUTO 28005KT 10SM CLR 21/05 A2985 RMK AO2
KLVN 182011Z AUTO 28005KT 10SM CLR 21/06 A2985 RMK AO2
KLVN 181952Z AUTO 28009KT 10SM CLR 21/06 A2986 RMK AO2
KLVN 181932Z AUTO 27006KT 10SM CLR 21/07 A2986 RMK AO2
KLVN 181911Z AUTO 26008KT 10SM CLR 19/08 A2986 RMK AO2
KLVN 181852Z AUTO 26007KT 233V293 10SM CLR 19/08 A2986 RMK AO2
KLVN 181832Z AUTO 27009G16KT 10SM CLR 18/08 A2986 RMK AO2
KLVN 181811Z AUTO 26011G17KT 10SM CLR 18/08 A2985 RMK AO2
KLVN 181752Z AUTO 25011G16KT 203V263 10SM CLR 18/09 A2984 RMK AO2
KLVN 181732Z AUTO 26005KT 10SM CLR 19/09 A2983 RMK AO2
KLVN 181711Z AUTO 24006KT 10SM CLR 18/09 A2984 RMK AO2
KLVN 181652Z AUTO 26005KT 10SM CLR 17/09 A2984 RMK AO2
KLVN 181632Z AUTO 25005KT 10SM CLR 18/09 A2983 RMK AO2
KLVN 181611Z AUTO 20010G16KT 7SM CLR 17/09 A2979 RMK AO2
KLVN 181552Z AUTO 19011G17KT 7SM CLR 16/09 A2979 RMK AO2
KLVN 181532Z AUTO 18009G17KT 10SM CLR 15/09 A2980 RMK AO2
KLVN 181511Z AUTO 18009G16KT 10SM CLR 14/08 A2980 RMK AO2
KLVN 181452Z AUTO 19010KT 10SM CLR 14/08 A2981 RMK AO2
KLVN 181432Z AUTO 18007G14KT 10SM CLR 12/08 A2981 RMK AO2
KLVN 181411Z AUTO 18009KT 10SM CLR 12/08 A2981 RMK AO2
KLVN 181352Z AUTO 19011G15KT 10SM CLR 11/08 A2981 RMK AO2
KLVN 181332Z AUTO 19009G14KT 10SM CLR 11/07 A2982 RMK AO2
KLVN 181311Z AUTO 19008KT 10SM CLR 09/07 A2982 RMK AO2
KLVN 181252Z AUTO 19008KT 10SM CLR 09/07 A2982 RMK AO2
KLVN 181232Z AUTO 18007KT 10SM CLR 09/07 A2982 RMK AO2
KLVN 181211Z AUTO 18008KT 10SM CLR 08/07 A2983 RMK AO2
KLVN 181152Z AUTO 19008KT 10SM CLR 09/07 A2984 RMK AO2
KLVN 181132Z AUTO 18007KT 10SM CLR 09/07 A2984 RMK AO2
KLVN 181111Z AUTO 19004KT 10SM CLR 08/07 A2986 RMK AO2
KLVN 181052Z AUTO 19005KT 10SM CLR 09/07 A2987 RMK AO2
KLVN 181032Z AUTO 20005KT 10SM CLR 09/07 A2986 RMK AO2
KLVN 181011Z AUTO 00000KT 10SM CLR 09/07 A2986 RMK AO2
KLVN 180952Z AUTO 00000KT 10SM CLR 09/07 A2986 RMK AO2
KLVN 180932Z AUTO 19003KT 10SM CLR 09/07 A2986 RMK AO2
KLVN 180911Z AUTO 00000KT 10SM CLR 09/07 A2986 RMK AO2
KLVN 180852Z AUTO 00000KT 10SM CLR 09/06 A2987 RMK AO2
KLVN 180832Z AUTO 00000KT 10SM CLR 09/07 A2987 RMK AO2
KLVN 180811Z AUTO 18005KT 10SM CLR 09/07 A2988 RMK AO2
KLVN 180752Z AUTO 19005KT 10SM CLR 10/07 A2988 RMK AO2
KLVN 180732Z AUTO 19005KT 10SM CLR 11/07 A2989 RMK AO2
KLVN 180711Z AUTO 20004KT 10SM CLR 11/07 A2989 RMK AO2
KLVN 180652Z AUTO 20004KT 10SM CLR 12/07 A2989 RMK AO2
KLVN 180632Z AUTO 19006KT 10SM CLR 12/07 A2990 RMK AO2
KLVN 180611Z AUTO 19004KT 10SM CLR 12/07 A2990 RMK AO2
KLVN 180552Z AUTO 20004KT 10SM CLR 12/07 A2991 RMK AO2
KLVN 180532Z AUTO 20003KT 10SM CLR 13/07 A2991 RMK AO2
KLVN 180511Z AUTO 21003KT 10SM CLR 13/07 A2991 RMK AO2
KLVN 180452Z AUTO 00000KT 10SM CLR 13/07 A2991 RMK AO2
KLVN 180432Z AUTO 20006KT 10SM CLR 14/07 A2991 RMK AO2
KLVN 180411Z AUTO 19005KT 10SM CLR 14/07 A2991 RMK AO2
KLVN 180352Z AUTO 19005KT 10SM CLR 14/07 A2991 RMK AO2
KLVN 180332Z AUTO 20006KT 10SM CLR 14/07 A2992 RMK AO2
KLVN 180311Z AUTO 19007KT 10SM CLR 14/07 A2992 RMK AO2
KLVN 180252Z AUTO 19007KT 10SM CLR 14/07 A2992 RMK AO2
KLVN 180232Z AUTO 19006KT 10SM CLR 14/07 A2992 RMK AO2
KLVN 180211Z AUTO 19004KT 10SM CLR 14/07 A2992 RMK AO2
KLVN 180152Z AUTO 18005KT 10SM CLR 14/07 A2992 RMK AO2
KLVN 180132Z AUTO 18005KT 10SM CLR 15/07 A2993 RMK AO2
KLVN 180111Z AUTO 18004KT 10SM CLR 13/07 A2993 RMK AO2
KLVN 180052Z AUTO 18003KT 10SM CLR 12/07 A2994 RMK AO2
KLVN 180032Z AUTO 00000KT 10SM CLR 09/07 A2993 RMK AO2
KLVN 180011Z AUTO 00000KT 10SM CLR 11/07 A2994 RMK AO2
KLVN 172352Z AUTO 00000KT 10SM CLR 12/07 A2993 RMK AO2
KLVN 172332Z AUTO 00000KT 10SM CLR 13/07 A2994 RMK AO2
KLVN 172311Z AUTO 00000KT 7SM CLR 13/06 A2994 RMK AO2
KLVN 172252Z AUTO 00000KT 4SM HZ CLR 17/06 A2993 RMK AO2